sensor_id;sensor_type;location;lat;lon;timestamp;P1;durP1;ratioP1;P2;durP2;ratioP2
16171;SDS011;8192;53.596;10.166;2023-12-20T00:01:16;36.13;;;21.40;;
16171;SDS011;8192;53.596;10.166;2023-12-20T00:03:43;25.97;;;20.70;;
16171;SDS011;8192;53.596;10.166;2023-12-20T00:06:10;22.33;;;19.97;;
16171;SDS011;8192;53.596;10.166;2023-12-20T00:08:37;31.53;;;20.37;;
16171;SDS011;8192;53.596;10.166;2023-12-20T00:11:04;28.77;;;20.20;;
16171;SDS011;8192;53.596;10.166;2023-12-20T00:13:32;30.27;;;20.27;;
16171;SDS011;8192;53.596;10.166;2023-12-20T00:15:59;30.83;;;20.50;;
16171;SDS011;8192;53.596;10.166;2023-12-20T00:18:26;24.63;;;20.03;;
16171;SDS011;8192;53.596;10.166;2023-12-20T00:20:53;25.20;;;20.37;;
16171;SDS011;8192;53.596;10.166;2023-12-20T00:23:20;32.63;;;20.40;;
16171;SDS011;8192;53.596;10.166;2023-12-20T00:25:48;24.23;;;20.40;;
16171;SDS011;8192;53.596;10.166;2023-12-20T00:28:15;32.47;;;20.90;;
16171;SDS011;8192;53.596;10.166;2023-12-20T00:30:43;29.97;;;21.90;;
16171;SDS011;8192;53.596;10.166;2023-12-20T00:33:10;26.30;;;20.50;;
16171;SDS011;8192;53.596;10.166;2023-12-20T00:35:37;24.57;;;21.47;;
16171;SDS011;8192;53.596;10.166;2023-12-20T00:38:04;28.10;;;20.80;;
16171;SDS011;8192;53.596;10.166;2023-12-20T00:40:32;23.07;;;20.67;;
16171;SDS011;8192;53.596;10.166;2023-12-20T00:42:59;29.93;;;20.60;;
16171;SDS011;8192;53.596;10.166;2023-12-20T00:45:26;23.83;;;20.90;;
16171;SDS011;8192;53.596;10.166;2023-12-20T00:47:55;32.10;;;20.40;;
16171;SDS011;8192;53.596;10.166;2023-12-20T00:50:22;27.87;;;20.60;;
16171;SDS011;8192;53.596;10.166;2023-12-20T00:52:49;30.07;;;20.40;;
16171;SDS011;8192;53.596;10.166;2023-12-20T00:55:16;33.83;;;20.73;;
16171;SDS011;8192;53.596;10.166;2023-12-20T00:57:42;27.20;;;20.33;;
16171;SDS011;8192;53.596;10.166;2023-12-20T01:00:10;23.30;;;20.40;;
16171;SDS011;8192;53.596;10.166;2023-12-20T01:02:38;34.97;;;21.27;;
16171;SDS011;8192;53.596;10.166;2023-12-20T01:05:07;28.87;;;20.83;;
16171;SDS011;8192;53.596;10.166;2023-12-20T01:07:34;22.80;;;20.33;;
16171;SDS011;8192;53.596;10.166;2023-12-20T01:10:01;28.97;;;19.70;;
16171;SDS011;8192;53.596;10.166;2023-12-20T01:12:28;29.03;;;19.90;;
16171;SDS011;8192;53.596;10.166;2023-12-20T01:14:55;22.67;;;20.17;;
16171;SDS011;8192;53.596;10.166;2023-12-20T01:17:23;31.73;;;20.50;;
16171;SDS011;8192;53.596;10.166;2023-12-20T01:19:49;26.03;;;19.83;;
16171;SDS011;8192;53.596;10.166;2023-12-20T01:22:18;23.43;;;19.47;;
16171;SDS011;8192;53.596;10.166;2023-12-20T01:24:45;25.93;;;20.37;;
16171;SDS011;8192;53.596;10.166;2023-12-20T01:27:12;27.47;;;20.87;;
16171;SDS011;8192;53.596;10.166;2023-12-20T01:29:39;28.20;;;20.50;;
16171;SDS011;8192;53.596;10.166;2023-12-20T01:32:06;22.07;;;19.80;;
16171;SDS011;8192;53.596;10.166;2023-12-20T01:34:33;27.00;;;20.40;;
16171;SDS011;8192;53.596;10.166;2023-12-20T01:36:59;27.73;;;20.33;;
16171;SDS011;8192;53.596;10.166;2023-12-20T01:39:29;28.57;;;20.43;;
16171;SDS011;8192;53.596;10.166;2023-12-20T01:41:55;26.43;;;20.50;;
16171;SDS011;8192;53.596;10.166;2023-12-20T01:44:22;31.20;;;20.60;;
16171;SDS011;8192;53.596;10.166;2023-12-20T01:46:49;22.77;;;20.10;;
16171;SDS011;8192;53.596;10.166;2023-12-20T01:49:16;25.00;;;20.80;;
16171;SDS011;8192;53.596;10.166;2023-12-20T01:51:43;24.70;;;20.57;;
16171;SDS011;8192;53.596;10.166;2023-12-20T01:54:11;25.43;;;20.70;;
16171;SDS011;8192;53.596;10.166;2023-12-20T01:56:40;31.60;;;21.87;;
16171;SDS011;8192;53.596;10.166;2023-12-20T01:59:07;30.53;;;21.13;;
16171;SDS011;8192;53.596;10.166;2023-12-20T02:01:35;25.67;;;20.03;;
16171;SDS011;8192;53.596;10.166;2023-12-20T02:04:02;28.17;;;21.20;;
16171;SDS011;8192;53.596;10.166;2023-12-20T02:06:30;30.53;;;21.43;;
16171;SDS011;8192;53.596;10.166;2023-12-20T02:08:57;28.90;;;21.33;;
16171;SDS011;8192;53.596;10.166;2023-12-20T02:11:24;29.00;;;20.83;;
16171;SDS011;8192;53.596;10.166;2023-12-20T02:13:53;23.80;;;20.10;;
16171;SDS011;8192;53.596;10.166;2023-12-20T02:16:20;24.57;;;20.37;;
16171;SDS011;8192;53.596;10.166;2023-12-20T02:18:47;30.20;;;20.33;;
16171;SDS011;8192;53.596;10.166;2023-12-20T02:21:14;28.73;;;20.90;;
16171;SDS011;8192;53.596;10.166;2023-12-20T02:23:43;22.80;;;20.37;;
16171;SDS011;8192;53.596;10.166;2023-12-20T02:26:10;24.80;;;20.90;;
16171;SDS011;8192;53.596;10.166;2023-12-20T02:28:38;22.77;;;20.30;;
16171;SDS011;8192;53.596;10.166;2023-12-20T02:31:06;29.37;;;21.00;;
16171;SDS011;8192;53.596;10.166;2023-12-20T02:33:32;22.77;;;20.17;;
16171;SDS011;8192;53.596;10.166;2023-12-20T02:35:59;32.43;;;20.23;;
16171;SDS011;8192;53.596;10.166;2023-12-20T02:38:26;24.73;;;20.20;;
16171;SDS011;8192;53.596;10.166;2023-12-20T02:40:55;23.73;;;20.40;;
16171;SDS011;8192;53.596;10.166;2023-12-20T02:43:21;21.83;;;19.67;;
16171;SDS011;8192;53.596;10.166;2023-12-20T02:45:48;24.37;;;20.40;;
16171;SDS011;8192;53.596;10.166;2023-12-20T02:48:15;31.77;;;20.07;;
16171;SDS011;8192;53.596;10.166;2023-12-20T02:50:42;23.90;;;20.03;;
16171;SDS011;8192;53.596;10.166;2023-12-20T02:53:09;23.10;;;19.50;;
16171;SDS011;8192;53.596;10.166;2023-12-20T02:55:36;28.30;;;20.30;;
16171;SDS011;8192;53.596;10.166;2023-12-20T02:58:04;29.53;;;19.60;;
16171;SDS011;8192;53.596;10.166;2023-12-20T03:00:31;32.13;;;20.27;;
16171;SDS011;8192;53.596;10.166;2023-12-20T03:02:58;26.23;;;20.30;;
16171;SDS011;8192;53.596;10.166;2023-12-20T03:05:25;22.23;;;20.00;;
16171;SDS011;8192;53.596;10.166;2023-12-20T03:07:52;24.03;;;20.07;;
16171;SDS011;8192;53.596;10.166;2023-12-20T03:10:19;20.73;;;18.67;;
16171;SDS011;8192;53.596;10.166;2023-12-20T03:12:46;34.00;;;20.40;;
16171;SDS011;8192;53.596;10.166;2023-12-20T03:15:14;29.50;;;20.47;;
16171;SDS011;8192;53.596;10.166;2023-12-20T03:17:41;28.37;;;19.80;;
16171;SDS011;8192;53.596;10.166;2023-12-20T03:20:08;25.90;;;20.23;;
16171;SDS011;8192;53.596;10.166;2023-12-20T03:22:35;28.53;;;20.27;;
16171;SDS011;8192;53.596;10.166;2023-12-20T03:25:02;26.53;;;19.77;;
16171;SDS011;8192;53.596;10.166;2023-12-20T03:27:29;22.13;;;19.97;;
16171;SDS011;8192;53.596;10.166;2023-12-20T03:29:56;23.77;;;19.70;;
16171;SDS011;8192;53.596;10.166;2023-12-20T03:32:24;25.07;;;20.20;;
16171;SDS011;8192;53.596;10.166;2023-12-20T03:34:51;22.07;;;19.73;;
16171;SDS011;8192;53.596;10.166;2023-12-20T03:37:18;33.20;;;20.53;;
16171;SDS011;8192;53.596;10.166;2023-12-20T03:39:45;21.73;;;19.43;;
16171;SDS011;8192;53.596;10.166;2023-12-20T03:42:12;23.60;;;19.70;;
16171;SDS011;8192;53.596;10.166;2023-12-20T03:44:39;26.53;;;20.13;;
16171;SDS011;8192;53.596;10.166;2023-12-20T03:47:07;27.47;;;19.53;;
16171;SDS011;8192;53.596;10.166;2023-12-20T03:49:36;27.33;;;19.73;;
16171;SDS011;8192;53.596;10.166;2023-12-20T03:52:03;23.20;;;19.50;;
16171;SDS011;8192;53.596;10.166;2023-12-20T03:54:31;24.30;;;19.83;;
16171;SDS011;8192;53.596;10.166;2023-12-20T03:56:57;26.30;;;19.67;;
16171;SDS011;8192;53.596;10.166;2023-12-20T03:59:24;22.17;;;19.83;;
16171;SDS011;8192;53.596;10.166;2023-12-20T04:01:51;26.80;;;21.53;;
16171;SDS011;8192;53.596;10.166;2023-12-20T04:04:18;23.87;;;21.30;;
16171;SDS011;8192;53.596;10.166;2023-12-20T04:06:46;24.20;;;21.60;;
16171;SDS011;8192;53.596;10.166;2023-12-20T04:09:13;22.93;;;20.53;;
16171;SDS011;8192;53.596;10.166;2023-12-20T04:11:40;23.60;;;21.30;;
16171;SDS011;8192;53.596;10.166;2023-12-20T04:14:07;27.13;;;22.10;;
16171;SDS011;8192;53.596;10.166;2023-12-20T04:16:35;26.33;;;23.30;;
16171;SDS011;8192;53.596;10.166;2023-12-20T04:19:02;24.57;;;22.20;;
16171;SDS011;8192;53.596;10.166;2023-12-20T04:21:29;24.73;;;22.60;;
16171;SDS011;8192;53.596;10.166;2023-12-20T04:23:57;26.70;;;23.30;;
16171;SDS011;8192;53.596;10.166;2023-12-20T04:26:24;30.10;;;23.10;;
16171;SDS011;8192;53.596;10.166;2023-12-20T04:28:51;26.40;;;23.73;;
16171;SDS011;8192;53.596;10.166;2023-12-20T04:31:18;25.87;;;23.27;;
16171;SDS011;8192;53.596;10.166;2023-12-20T04:33:45;30.60;;;24.60;;
16171;SDS011;8192;53.596;10.166;2023-12-20T04:36:12;30.30;;;23.20;;
16171;SDS011;8192;53.596;10.166;2023-12-20T04:38:40;26.43;;;23.50;;
16171;SDS011;8192;53.596;10.166;2023-12-20T04:41:09;25.00;;;22.83;;
16171;SDS011;8192;53.596;10.166;2023-12-20T04:43:36;26.90;;;24.10;;
16171;SDS011;8192;53.596;10.166;2023-12-20T04:46:03;25.07;;;22.67;;
16171;SDS011;8192;53.596;10.166;2023-12-20T04:48:29;25.53;;;23.03;;
16171;SDS011;8192;53.596;10.166;2023-12-20T04:50:56;30.43;;;23.10;;
16171;SDS011;8192;53.596;10.166;2023-12-20T04:53:23;33.43;;;22.63;;
16171;SDS011;8192;53.596;10.166;2023-12-20T04:55:51;26.73;;;22.93;;
16171;SDS011;8192;53.596;10.166;2023-12-20T04:58:19;26.03;;;23.37;;
16171;SDS011;8192;53.596;10.166;2023-12-20T05:00:46;27.63;;;24.80;;
16171;SDS011;8192;53.596;10.166;2023-12-20T05:03:13;28.97;;;23.77;;
16171;SDS011;8192;53.596;10.166;2023-12-20T05:05:40;34.90;;;23.17;;
16171;SDS011;8192;53.596;10.166;2023-12-20T05:08:07;24.23;;;21.90;;
16171;SDS011;8192;53.596;10.166;2023-12-20T05:10:34;31.07;;;22.70;;
16171;SDS011;8192;53.596;10.166;2023-12-20T05:13:01;24.33;;;21.70;;
16171;SDS011;8192;53.596;10.166;2023-12-20T05:15:30;26.30;;;22.40;;
16171;SDS011;8192;53.596;10.166;2023-12-20T05:17:58;24.67;;;22.00;;
16171;SDS011;8192;53.596;10.166;2023-12-20T05:20:24;27.33;;;22.63;;
16171;SDS011;8192;53.596;10.166;2023-12-20T05:22:51;25.37;;;21.67;;
16171;SDS011;8192;53.596;10.166;2023-12-20T05:25:18;25.03;;;21.73;;
16171;SDS011;8192;53.596;10.166;2023-12-20T05:27:45;28.47;;;21.33;;
16171;SDS011;8192;53.596;10.166;2023-12-20T05:30:12;23.50;;;21.00;;
16171;SDS011;8192;53.596;10.166;2023-12-20T05:32:41;27.80;;;21.47;;
16171;SDS011;8192;53.596;10.166;2023-12-20T05:35:08;24.83;;;20.97;;
16171;SDS011;8192;53.596;10.166;2023-12-20T05:37:35;27.17;;;21.77;;
16171;SDS011;8192;53.596;10.166;2023-12-20T05:40:02;26.47;;;21.27;;
16171;SDS011;8192;53.596;10.166;2023-12-20T05:42:30;23.40;;;21.03;;
16171;SDS011;8192;53.596;10.166;2023-12-20T05:44:57;29.30;;;21.80;;
16171;SDS011;8192;53.596;10.166;2023-12-20T05:47:24;25.47;;;22.80;;
16171;SDS011;8192;53.596;10.166;2023-12-20T05:49:52;26.13;;;22.80;;
16171;SDS011;8192;53.596;10.166;2023-12-20T05:52:19;27.67;;;22.40;;
16171;SDS011;8192;53.596;10.166;2023-12-20T05:54:47;25.40;;;22.67;;
16171;SDS011;8192;53.596;10.166;2023-12-20T05:57:14;24.03;;;21.87;;
16171;SDS011;8192;53.596;10.166;2023-12-20T05:59:41;24.60;;;22.00;;
16171;SDS011;8192;53.596;10.166;2023-12-20T06:02:08;29.93;;;21.63;;
16171;SDS011;8192;53.596;10.166;2023-12-20T06:04:34;24.37;;;21.77;;
16171;SDS011;8192;53.596;10.166;2023-12-20T06:07:03;28.57;;;21.93;;
16171;SDS011;8192;53.596;10.166;2023-12-20T06:09:30;24.50;;;21.40;;
16171;SDS011;8192;53.596;10.166;2023-12-20T06:11:57;23.23;;;20.80;;
16171;SDS011;8192;53.596;10.166;2023-12-20T06:14:23;24.77;;;21.80;;
16171;SDS011;8192;53.596;10.166;2023-12-20T06:16:50;27.87;;;21.97;;
16171;SDS011;8192;53.596;10.166;2023-12-20T06:19:17;27.70;;;22.20;;
16171;SDS011;8192;53.596;10.166;2023-12-20T06:21:44;32.90;;;22.33;;
16171;SDS011;8192;53.596;10.166;2023-12-20T06:24:13;31.60;;;22.23;;
16171;SDS011;8192;53.596;10.166;2023-12-20T06:26:40;32.00;;;21.77;;
16171;SDS011;8192;53.596;10.166;2023-12-20T06:29:07;31.40;;;22.00;;
16171;SDS011;8192;53.596;10.166;2023-12-20T06:31:34;25.53;;;22.00;;
16171;SDS011;8192;53.596;10.166;2023-12-20T06:34:01;29.97;;;21.37;;
16171;SDS011;8192;53.596;10.166;2023-12-20T06:36:28;24.43;;;21.60;;
16171;SDS011;8192;53.596;10.166;2023-12-20T06:38:55;27.83;;;21.50;;
16171;SDS011;8192;53.596;10.166;2023-12-20T06:41:24;28.03;;;21.30;;
16171;SDS011;8192;53.596;10.166;2023-12-20T06:43:51;27.60;;;21.70;;
16171;SDS011;8192;53.596;10.166;2023-12-20T06:46:18;27.53;;;20.93;;
16171;SDS011;8192;53.596;10.166;2023-12-20T06:48:45;22.50;;;20.10;;
16171;SDS011;8192;53.596;10.166;2023-12-20T06:51:12;22.23;;;20.17;;
16171;SDS011;8192;53.596;10.166;2023-12-20T06:53:40;29.97;;;21.33;;
16171;SDS011;8192;53.596;10.166;2023-12-20T06:56:06;22.27;;;20.03;;
16171;SDS011;8192;53.596;10.166;2023-12-20T06:58:35;32.50;;;21.20;;
16171;SDS011;8192;53.596;10.166;2023-12-20T07:01:03;25.20;;;21.03;;
16171;SDS011;8192;53.596;10.166;2023-12-20T07:03:30;27.60;;;20.20;;
16171;SDS011;8192;53.596;10.166;2023-12-20T07:05:57;26.20;;;20.53;;
16171;SDS011;8192;53.596;10.166;2023-12-20T07:08:24;24.60;;;19.90;;
16171;SDS011;8192;53.596;10.166;2023-12-20T07:10:51;23.47;;;19.97;;
16171;SDS011;8192;53.596;10.166;2023-12-20T07:13:18;23.37;;;20.60;;
16171;SDS011;8192;53.596;10.166;2023-12-20T07:15:47;31.33;;;20.17;;
16171;SDS011;8192;53.596;10.166;2023-12-20T07:18:13;23.40;;;20.57;;
16171;SDS011;8192;53.596;10.166;2023-12-20T07:20:40;24.53;;;20.87;;
16171;SDS011;8192;53.596;10.166;2023-12-20T07:23:08;23.70;;;20.47;;
16171;SDS011;8192;53.596;10.166;2023-12-20T07:25:35;22.70;;;20.47;;
16171;SDS011;8192;53.596;10.166;2023-12-20T07:28:02;27.40;;;20.33;;
16171;SDS011;8192;53.596;10.166;2023-12-20T07:30:29;28.00;;;20.77;;
16171;SDS011;8192;53.596;10.166;2023-12-20T07:32:58;26.30;;;20.30;;
16171;SDS011;8192;53.596;10.166;2023-12-20T07:35:27;32.63;;;21.37;;
16171;SDS011;8192;53.596;10.166;2023-12-20T07:37:54;26.37;;;20.90;;
16171;SDS011;8192;53.596;10.166;2023-12-20T07:40:21;32.03;;;21.43;;
16171;SDS011;8192;53.596;10.166;2023-12-20T07:42:48;22.93;;;20.60;;
16171;SDS011;8192;53.596;10.166;2023-12-20T07:45:16;27.60;;;20.97;;
16171;SDS011;8192;53.596;10.166;2023-12-20T07:47:42;28.73;;;21.97;;
16171;SDS011;8192;53.596;10.166;2023-12-20T07:50:11;23.60;;;20.33;;
16171;SDS011;8192;53.596;10.166;2023-12-20T07:52:38;26.43;;;21.23;;
16171;SDS011;8192;53.596;10.166;2023-12-20T07:55:05;27.67;;;21.60;;
16171;SDS011;8192;53.596;10.166;2023-12-20T07:57:33;23.43;;;21.03;;
16171;SDS011;8192;53.596;10.166;2023-12-20T07:59:59;31.00;;;21.47;;
16171;SDS011;8192;53.596;10.166;2023-12-20T08:02:28;28.13;;;20.97;;
16171;SDS011;8192;53.596;10.166;2023-12-20T08:04:55;33.20;;;20.70;;
16171;SDS011;8192;53.596;10.166;2023-12-20T08:09:54;24.60;;;21.10;;
16171;SDS011;8192;53.596;10.166;2023-12-20T08:12:22;30.97;;;21.20;;
16171;SDS011;8192;53.596;10.166;2023-12-20T08:14:52;27.70;;;20.87;;
16171;SDS011;8192;53.596;10.166;2023-12-20T08:17:19;27.73;;;21.10;;
16171;SDS011;8192;53.596;10.166;2023-12-20T08:19:48;27.80;;;21.17;;
16171;SDS011;8192;53.596;10.166;2023-12-20T08:22:15;31.63;;;20.90;;
16171;SDS011;8192;53.596;10.166;2023-12-20T08:24:46;26.00;;;21.50;;
16171;SDS011;8192;53.596;10.166;2023-12-20T08:27:13;26.37;;;22.33;;
16171;SDS011;8192;53.596;10.166;2023-12-20T08:29:43;24.20;;;21.70;;
16171;SDS011;8192;53.596;10.166;2023-12-20T08:32:11;25.67;;;21.83;;
16171;SDS011;8192;53.596;10.166;2023-12-20T08:34:38;30.30;;;22.60;;
16171;SDS011;8192;53.596;10.166;2023-12-20T08:37:06;23.47;;;21.23;;
16171;SDS011;8192;53.596;10.166;2023-12-20T08:39:34;32.30;;;21.97;;
16171;SDS011;8192;53.596;10.166;2023-12-20T08:42:03;28.73;;;21.83;;
16171;SDS011;8192;53.596;10.166;2023-12-20T08:44:31;24.03;;;20.43;;
16171;SDS011;8192;53.596;10.166;2023-12-20T08:46:58;29.77;;;21.37;;
16171;SDS011;8192;53.596;10.166;2023-12-20T08:49:28;31.67;;;20.77;;
16171;SDS011;8192;53.596;10.166;2023-12-20T08:51:55;27.90;;;20.90;;
16171;SDS011;8192;53.596;10.166;2023-12-20T08:54:22;26.70;;;20.30;;
16171;SDS011;8192;53.596;10.166;2023-12-20T08:56:49;23.37;;;19.80;;
16171;SDS011;8192;53.596;10.166;2023-12-20T08:59:18;26.17;;;19.53;;
16171;SDS011;8192;53.596;10.166;2023-12-20T09:01:45;21.00;;;19.00;;
16171;SDS011;8192;53.596;10.166;2023-12-20T09:04:13;27.30;;;20.63;;
16171;SDS011;8192;53.596;10.166;2023-12-20T09:06:40;21.80;;;19.73;;
16171;SDS011;8192;53.596;10.166;2023-12-20T09:09:09;24.60;;;20.90;;
16171;SDS011;8192;53.596;10.166;2023-12-20T09:11:38;25.70;;;20.90;;
16171;SDS011;8192;53.596;10.166;2023-12-20T09:14:05;28.20;;;20.80;;
16171;SDS011;8192;53.596;10.166;2023-12-20T09:16:34;22.10;;;19.50;;
16171;SDS011;8192;53.596;10.166;2023-12-20T09:19:00;22.33;;;20.13;;
16171;SDS011;8192;53.596;10.166;2023-12-20T09:21:27;23.13;;;20.63;;
16171;SDS011;8192;53.596;10.166;2023-12-20T09:26:24;22.57;;;20.33;;
16171;SDS011;8192;53.596;10.166;2023-12-20T09:28:52;21.83;;;19.83;;
16171;SDS011;8192;53.596;10.166;2023-12-20T09:31:21;21.47;;;19.47;;
16171;SDS011;8192;53.596;10.166;2023-12-20T09:33:49;21.37;;;19.37;;
16171;SDS011;8192;53.596;10.166;2023-12-20T09:36:16;20.50;;;18.87;;
16171;SDS011;8192;53.596;10.166;2023-12-20T09:38:44;20.40;;;18.67;;
16171;SDS011;8192;53.596;10.166;2023-12-20T09:41:11;20.80;;;19.13;;
16171;SDS011;8192;53.596;10.166;2023-12-20T09:43:39;21.27;;;18.87;;
16171;SDS011;8192;53.596;10.166;2023-12-20T09:46:08;20.70;;;19.00;;
16171;SDS011;8192;53.596;10.166;2023-12-20T09:48:38;20.70;;;18.80;;
16171;SDS011;8192;53.596;10.166;2023-12-20T09:51:08;20.07;;;18.57;;
16171;SDS011;8192;53.596;10.166;2023-12-20T09:53:35;20.20;;;18.60;;
16171;SDS011;8192;53.596;10.166;2023-12-20T09:56:05;19.93;;;18.33;;
16171;SDS011;8192;53.596;10.166;2023-12-20T09:58:32;19.87;;;18.13;;
16171;SDS011;8192;53.596;10.166;2023-12-20T10:01:02;19.07;;;17.67;;
16171;SDS011;8192;53.596;10.166;2023-12-20T10:03:29;19.90;;;18.20;;
16171;SDS011;8192;53.596;10.166;2023-12-20T10:05:59;19.70;;;18.10;;
16171;SDS011;8192;53.596;10.166;2023-12-20T10:08:28;19.33;;;18.03;;
16171;SDS011;8192;53.596;10.166;2023-12-20T10:10:57;19.57;;;17.80;;
16171;SDS011;8192;53.596;10.166;2023-12-20T10:13:27;19.23;;;17.63;;
16171;SDS011;8192;53.596;10.166;2023-12-20T10:15:54;19.03;;;17.70;;
16171;SDS011;8192;53.596;10.166;2023-12-20T10:18:22;19.40;;;17.80;;
16171;SDS011;8192;53.596;10.166;2023-12-20T10:20:49;18.93;;;17.57;;
16171;SDS011;8192;53.596;10.166;2023-12-20T10:23:16;19.10;;;17.80;;
16171;SDS011;8192;53.596;10.166;2023-12-20T10:25:47;20.20;;;18.40;;
16171;SDS011;8192;53.596;10.166;2023-12-20T10:28:24;19.87;;;18.37;;
16171;SDS011;8192;53.596;10.166;2023-12-20T10:30:53;20.00;;;18.13;;
16171;SDS011;8192;53.596;10.166;2023-12-20T10:33:23;19.90;;;18.30;;
16171;SDS011;8192;53.596;10.166;2023-12-20T10:35:52;20.07;;;18.57;;
16171;SDS011;8192;53.596;10.166;2023-12-20T10:38:21;19.87;;;18.17;;
16171;SDS011;8192;53.596;10.166;2023-12-20T10:40:50;20.37;;;18.27;;
16171;SDS011;8192;53.596;10.166;2023-12-20T10:43:20;19.63;;;18.03;;
16171;SDS011;8192;53.596;10.166;2023-12-20T10:45:52;19.60;;;18.10;;
16171;SDS011;8192;53.596;10.166;2023-12-20T10:48:19;21.43;;;18.50;;
16171;SDS011;8192;53.596;10.166;2023-12-20T10:50:54;20.43;;;18.30;;
16171;SDS011;8192;53.596;10.166;2023-12-20T10:53:22;20.57;;;18.67;;
16171;SDS011;8192;53.596;10.166;2023-12-20T10:55:55;21.10;;;18.77;;
16171;SDS011;8192;53.596;10.166;2023-12-20T10:58:22;20.70;;;18.80;;
16171;SDS011;8192;53.596;10.166;2023-12-20T11:00:53;20.30;;;18.40;;
16171;SDS011;8192;53.596;10.166;2023-12-20T11:03:26;20.63;;;18.83;;
16171;SDS011;8192;53.596;10.166;2023-12-20T11:05:58;20.50;;;18.60;;
16171;SDS011;8192;53.596;10.166;2023-12-20T11:08:32;20.23;;;18.43;;
16171;SDS011;8192;53.596;10.166;2023-12-20T11:11:07;20.13;;;18.33;;
16171;SDS011;8192;53.596;10.166;2023-12-20T11:13:43;21.57;;;19.37;;
16171;SDS011;8192;53.596;10.166;2023-12-20T11:16:14;21.33;;;19.20;;
16171;SDS011;8192;53.596;10.166;2023-12-20T11:18:44;21.83;;;19.87;;
16171;SDS011;8192;53.596;10.166;2023-12-20T11:21:13;21.07;;;19.13;;
16171;SDS011;8192;53.596;10.166;2023-12-20T11:23:40;21.20;;;19.40;;
16171;SDS011;8192;53.596;10.166;2023-12-20T11:26:10;21.50;;;19.50;;
16171;SDS011;8192;53.596;10.166;2023-12-20T11:28:40;22.43;;;20.20;;
16171;SDS011;8192;53.596;10.166;2023-12-20T11:31:13;22.73;;;20.63;;
16171;SDS011;8192;53.596;10.166;2023-12-20T11:33:42;23.60;;;21.33;;
16171;SDS011;8192;53.596;10.166;2023-12-20T11:36:15;23.20;;;21.07;;
16171;SDS011;8192;53.596;10.166;2023-12-20T11:38:53;23.53;;;21.63;;
16171;SDS011;8192;53.596;10.166;2023-12-20T11:41:24;22.70;;;20.60;;
16171;SDS011;8192;53.596;10.166;2023-12-20T11:43:55;22.40;;;20.60;;
16171;SDS011;8192;53.596;10.166;2023-12-20T11:46:22;21.90;;;20.13;;
16171;SDS011;8192;53.596;10.166;2023-12-20T11:48:49;22.20;;;20.40;;
16171;SDS011;8192;53.596;10.166;2023-12-20T11:51:17;21.20;;;19.60;;
16171;SDS011;8192;53.596;10.166;2023-12-20T11:53:44;22.30;;;20.23;;
16171;SDS011;8192;53.596;10.166;2023-12-20T11:56:11;22.60;;;20.70;;
16171;SDS011;8192;53.596;10.166;2023-12-20T11:58:47;22.30;;;20.30;;
16171;SDS011;8192;53.596;10.166;2023-12-20T12:01:16;21.83;;;20.13;;
16171;SDS011;8192;53.596;10.166;2023-12-20T12:03:44;22.17;;;20.27;;
16171;SDS011;8192;53.596;10.166;2023-12-20T12:06:12;21.70;;;19.57;;
16171;SDS011;8192;53.596;10.166;2023-12-20T12:08:39;21.87;;;19.73;;
16171;SDS011;8192;53.596;10.166;2023-12-20T12:11:07;21.70;;;19.67;;
16171;SDS011;8192;53.596;10.166;2023-12-20T12:13:34;21.43;;;19.40;;
16171;SDS011;8192;53.596;10.166;2023-12-20T12:16:05;22.70;;;19.93;;
16171;SDS011;8192;53.596;10.166;2023-12-20T12:18:32;24.50;;;20.10;;
16171;SDS011;8192;53.596;10.166;2023-12-20T12:21:00;24.00;;;20.43;;
16171;SDS011;8192;53.596;10.166;2023-12-20T12:23:28;26.27;;;20.20;;
16171;SDS011;8192;53.596;10.166;2023-12-20T12:25:55;22.13;;;19.90;;
16171;SDS011;8192;53.596;10.166;2023-12-20T12:28:25;23.13;;;20.03;;
16171;SDS011;8192;53.596;10.166;2023-12-20T12:30:56;29.90;;;20.63;;
16171;SDS011;8192;53.596;10.166;2023-12-20T12:33:25;22.67;;;20.13;;
16171;SDS011;8192;53.596;10.166;2023-12-20T12:35:53;25.20;;;19.70;;
16171;SDS011;8192;53.596;10.166;2023-12-20T12:38:21;26.10;;;20.30;;
16171;SDS011;8192;53.596;10.166;2023-12-20T12:40:48;30.10;;;20.53;;
16171;SDS011;8192;53.596;10.166;2023-12-20T12:43:16;25.33;;;19.90;;
16171;SDS011;8192;53.596;10.166;2023-12-20T12:45:43;25.20;;;19.70;;
16171;SDS011;8192;53.596;10.166;2023-12-20T12:48:10;22.93;;;19.90;;
16171;SDS011;8192;53.596;10.166;2023-12-20T12:50:38;20.83;;;18.70;;
16171;SDS011;8192;53.596;10.166;2023-12-20T12:53:05;22.73;;;19.47;;
16171;SDS011;8192;53.596;10.166;2023-12-20T12:55:32;21.47;;;19.07;;
16171;SDS011;8192;53.596;10.166;2023-12-20T12:58:01;23.47;;;18.73;;
16171;SDS011;8192;53.596;10.166;2023-12-20T13:00:27;24.47;;;19.03;;
16171;SDS011;8192;53.596;10.166;2023-12-20T13:02:54;29.80;;;21.13;;
16171;SDS011;8192;53.596;10.166;2023-12-20T13:05:21;30.77;;;19.43;;
16171;SDS011;8192;53.596;10.166;2023-12-20T13:07:50;25.73;;;19.90;;
16171;SDS011;8192;53.596;10.166;2023-12-20T13:10:17;24.33;;;19.93;;
16171;SDS011;8192;53.596;10.166;2023-12-20T13:12:44;47.93;;;19.90;;
16171;SDS011;8192;53.596;10.166;2023-12-20T13:15:10;22.83;;;20.20;;
16171;SDS011;8192;53.596;10.166;2023-12-20T13:17:37;27.47;;;20.03;;
16171;SDS011;8192;53.596;10.166;2023-12-20T13:20:05;23.23;;;19.63;;
16171;SDS011;8192;53.596;10.166;2023-12-20T13:22:33;25.07;;;19.97;;
16171;SDS011;8192;53.596;10.166;2023-12-20T13:25:02;33.17;;;21.00;;
16171;SDS011;8192;53.596;10.166;2023-12-20T13:27:30;24.00;;;19.97;;
16171;SDS011;8192;53.596;10.166;2023-12-20T13:29:57;21.80;;;19.70;;
16171;SDS011;8192;53.596;10.166;2023-12-20T13:32:24;26.30;;;20.50;;
16171;SDS011;8192;53.596;10.166;2023-12-20T13:34:51;30.87;;;20.37;;
16171;SDS011;8192;53.596;10.166;2023-12-20T13:37:18;25.43;;;20.40;;
16171;SDS011;8192;53.596;10.166;2023-12-20T13:39:45;23.57;;;19.50;;
16171;SDS011;8192;53.596;10.166;2023-12-20T13:42:14;28.80;;;20.77;;
16171;SDS011;8192;53.596;10.166;2023-12-20T13:44:41;32.60;;;20.13;;
16171;SDS011;8192;53.596;10.166;2023-12-20T13:47:09;22.17;;;19.90;;
16171;SDS011;8192;53.596;10.166;2023-12-20T13:49:36;28.70;;;20.07;;
16171;SDS011;8192;53.596;10.166;2023-12-20T13:52:03;24.60;;;19.83;;
16171;SDS011;8192;53.596;10.166;2023-12-20T13:54:30;32.83;;;20.90;;
16171;SDS011;8192;53.596;10.166;2023-12-20T13:56:57;22.50;;;20.17;;
16171;SDS011;8192;53.596;10.166;2023-12-20T13:59:25;26.97;;;20.37;;
16171;SDS011;8192;53.596;10.166;2023-12-20T14:01:52;24.50;;;20.40;;
16171;SDS011;8192;53.596;10.166;2023-12-20T14:04:19;33.80;;;20.83;;
16171;SDS011;8192;53.596;10.166;2023-12-20T14:06:46;27.20;;;20.83;;
16171;SDS011;8192;53.596;10.166;2023-12-20T14:09:13;31.10;;;21.60;;
16171;SDS011;8192;53.596;10.166;2023-12-20T14:11:40;27.07;;;20.47;;
16171;SDS011;8192;53.596;10.166;2023-12-20T14:14:07;31.57;;;21.33;;
16171;SDS011;8192;53.596;10.166;2023-12-20T14:16:36;25.73;;;21.20;;
16171;SDS011;8192;53.596;10.166;2023-12-20T14:19:03;30.13;;;21.07;;
16171;SDS011;8192;53.596;10.166;2023-12-20T14:21:32;23.57;;;21.10;;
16171;SDS011;8192;53.596;10.166;2023-12-20T14:23:59;29.43;;;21.63;;
16171;SDS011;8192;53.596;10.166;2023-12-20T14:26:26;29.27;;;21.37;;
16171;SDS011;8192;53.596;10.166;2023-12-20T14:28:53;26.73;;;22.13;;